sensor_id;sensor_type;location;lat;lon;timestamp;pressure;altitude;pressure_sealevel;temperature;humidity
48624;BME280;34422;45.802;16.114;2022-11-14T00:00:43;101274.69;;;7.25;100.00
48624;BME280;34422;45.802;16.114;2022-11-14T00:03:11;101276.72;;;7.23;100.00
48624;BME280;34422;45.802;16.114;2022-11-14T00:05:44;101282.44;;;7.20;100.00
48624;BME280;34422;45.802;16.114;2022-11-14T00:08:18;101291.00;;;7.16;100.00
48624;BME280;34422;45.802;16.114;2022-11-14T00:10:47;101282.56;;;7.02;100.00
48624;BME280;34422;45.802;16.114;2022-11-14T00:13:15;101284.72;;;6.99;100.00
48624;BME280;34422;45.802;16.114;2022-11-14T00:15:43;101282.38;;;6.96;100.00
48624;BME280;34422;45.802;16.114;2022-11-14T00:18:10;101288.41;;;6.98;100.00
48624;BME280;34422;45.802;16.114;2022-11-14T00:20:37;101276.31;;;6.94;100.00
48624;BME280;34422;45.802;16.114;2022-11-14T00:23:04;101278.84;;;6.95;100.00
48624;BME280;34422;45.802;16.114;2022-11-14T00:25:31;101271.63;;;6.96;100.00
48624;BME280;34422;45.802;16.114;2022-11-14T00:27:58;101284.72;;;6.99;100.00
48624;BME280;34422;45.802;16.114;2022-11-14T00:30:26;101275.47;;;6.93;100.00
48624;BME280;34422;45.802;16.114;2022-11-14T00:32:53;101278.66;;;6.89;100.00
48624;BME280;34422;45.802;16.114;2022-11-14T00:35:20;101278.47;;;6.82;100.00
48624;BME280;34422;45.802;16.114;2022-11-14T00:37:47;101276.28;;;6.77;100.00
48624;BME280;34422;45.802;16.114;2022-11-14T00:40:14;101273.91;;;6.74;100.00
48624;BME280;34422;45.802;16.114;2022-11-14T00:42:41;101267.84;;;6.72;100.00
48624;BME280;34422;45.802;16.114;2022-11-14T00:45:08;101271.53;;;6.71;100.00
48624;BME280;34422;45.802;16.114;2022-11-14T00:47:35;101267.50;;;6.67;100.00
48624;BME280;34422;45.802;16.114;2022-11-14T00:50:03;101272.50;;;6.62;100.00
48624;BME280;34422;45.802;16.114;2022-11-14T00:52:30;101280.56;;;6.54;100.00
48624;BME280;34422;45.802;16.114;2022-11-14T00:54:57;101282.88;;;6.49;100.00
48624;BME280;34422;45.802;16.114;2022-11-14T00:57:24;101280.16;;;6.41;100.00
48624;BME280;34422;45.802;16.114;2022-11-14T00:59:50;101280.50;;;6.38;100.00
48624;BME280;34422;45.802;16.114;2022-11-14T01:02:22;101283.81;;;6.32;100.00
48624;BME280;34422;45.802;16.114;2022-11-14T01:04:49;101281.63;;;6.27;100.00
48624;BME280;34422;45.802;16.114;2022-11-14T01:07:15;101282.09;;;6.23;100.00
48624;BME280;34422;45.802;16.114;2022-11-14T01:09:42;101276.19;;;6.19;100.00
48624;BME280;34422;45.802;16.114;2022-11-14T01:12:09;101270.28;;;6.16;100.00
48624;BME280;34422;45.802;16.114;2022-11-14T01:14:36;101263.56;;;6.12;100.00
48624;BME280;34422;45.802;16.114;2022-11-14T01:17:04;101266.25;;;6.12;100.00
48624;BME280;34422;45.802;16.114;2022-11-14T01:19:31;101251.44;;;6.07;100.00
48624;BME280;34422;45.802;16.114;2022-11-14T01:21:58;101249.91;;;6.05;100.00
48624;BME280;34422;45.802;16.114;2022-11-14T01:24:25;101241.00;;;6.04;100.00
48624;BME280;34422;45.802;16.114;2022-11-14T01:26:54;101242.69;;;6.05;100.00
48624;BME280;34422;45.802;16.114;2022-11-14T01:29:21;101231.94;;;6.05;100.00
48624;BME280;34422;45.802;16.114;2022-11-14T01:31:48;101225.56;;;6.06;100.00
48624;BME280;34422;45.802;16.114;2022-11-14T01:34:15;101221.88;;;6.07;100.00
48624;BME280;34422;45.802;16.114;2022-11-14T01:36:42;101226.63;;;6.14;100.00
48624;BME280;34422;45.802;16.114;2022-11-14T01:39:09;101224.44;;;6.17;100.00
48624;BME280;34422;45.802;16.114;2022-11-14T01:41:36;101219.91;;;6.18;100.00
48624;BME280;34422;45.802;16.114;2022-11-14T01:44:12;101232.34;;;6.19;100.00
48624;BME280;34422;45.802;16.114;2022-11-14T01:46:44;101234.00;;;6.12;100.00
48624;BME280;34422;45.802;16.114;2022-11-14T01:51:45;101236.91;;;5.92;100.00
48624;BME280;34422;45.802;16.114;2022-11-14T01:54:25;101235.28;;;5.82;100.00
48624;BME280;34422;45.802;16.114;2022-11-14T01:57:01;101218.94;;;5.75;100.00
48624;BME280;34422;45.802;16.114;2022-11-14T01:59:32;101220.44;;;5.69;100.00
48624;BME280;34422;45.802;16.114;2022-11-14T02:02:04;101215.84;;;5.62;100.00
48624;BME280;34422;45.802;16.114;2022-11-14T02:04:36;101213.81;;;5.56;100.00
48624;BME280;34422;45.802;16.114;2022-11-14T02:07:05;101215.50;;;5.57;100.00
48624;BME280;34422;45.802;16.114;2022-11-14T02:09:35;101210.44;;;5.54;100.00
48624;BME280;34422;45.802;16.114;2022-11-14T02:12:05;101201.16;;;5.48;100.00
48624;BME280;34422;45.802;16.114;2022-11-14T02:14:34;101198.63;;;5.47;100.00
48624;BME280;34422;45.802;16.114;2022-11-14T02:17:03;101192.75;;;5.43;100.00
48624;BME280;34422;45.802;16.114;2022-11-14T02:19:51;101197.13;;;5.44;100.00
48624;BME280;34422;45.802;16.114;2022-11-14T02:22:18;101186.16;;;5.38;100.00
48624;BME280;34422;45.802;16.114;2022-11-14T02:24:45;101190.13;;;5.33;100.00
48624;BME280;34422;45.802;16.114;2022-11-14T02:27:13;101188.69;;;5.39;100.00
48624;BME280;34422;45.802;16.114;2022-11-14T02:29:41;101185.94;;;5.31;100.00
48624;BME280;34422;45.802;16.114;2022-11-14T02:32:07;101181.88;;;5.27;100.00
48624;BME280;34422;45.802;16.114;2022-11-14T02:34:34;101173.44;;;5.22;100.00
48624;BME280;34422;45.802;16.114;2022-11-14T02:37:01;101167.38;;;5.20;100.00
48624;BME280;34422;45.802;16.114;2022-11-14T02:39:28;101186.16;;;5.20;100.00
48624;BME280;34422;45.802;16.114;2022-11-14T02:41:55;101180.81;;;5.20;100.00
48624;BME280;34422;45.802;16.114;2022-11-14T02:44:22;101173.78;;;5.19;100.00
48624;BME280;34422;45.802;16.114;2022-11-14T02:46:49;101159.69;;;5.17;100.00
48624;BME280;34422;45.802;16.114;2022-11-14T02:49:15;101165.88;;;5.17;100.00
48624;BME280;34422;45.802;16.114;2022-11-14T02:51:42;101180.00;;;5.19;100.00
48624;BME280;34422;45.802;16.114;2022-11-14T02:54:09;101178.97;;;5.20;100.00
48624;BME280;34422;45.802;16.114;2022-11-14T02:56:37;101169.41;;;5.18;100.00
48624;BME280;34422;45.802;16.114;2022-11-14T02:59:03;101171.41;;;5.16;100.00
48624;BME280;34422;45.802;16.114;2022-11-14T03:01:30;101184.44;;;5.11;100.00
48624;BME280;34422;45.802;16.114;2022-11-14T03:03:57;101179.50;;;5.06;100.00
48624;BME280;34422;45.802;16.114;2022-11-14T03:06:24;101173.66;;;5.03;100.00
48624;BME280;34422;45.802;16.114;2022-11-14T03:08:51;101179.59;;;4.96;100.00
48624;BME280;34422;45.802;16.114;2022-11-14T03:11:18;101172.03;;;4.92;100.00
48624;BME280;34422;45.802;16.114;2022-11-14T03:13:44;101170.66;;;4.88;100.00
48624;BME280;34422;45.802;16.114;2022-11-14T03:16:12;101168.66;;;4.90;100.00
48624;BME280;34422;45.802;16.114;2022-11-14T03:18:39;101176.47;;;4.83;100.00
48624;BME280;34422;45.802;16.114;2022-11-14T03:21:07;101181.81;;;4.65;100.00
48624;BME280;34422;45.802;16.114;2022-11-14T03:23:34;101194.56;;;4.63;100.00
48624;BME280;34422;45.802;16.114;2022-11-14T03:26:03;101199.06;;;4.63;100.00
48624;BME280;34422;45.802;16.114;2022-11-14T03:28:31;101195.63;;;4.71;100.00
48624;BME280;34422;45.802;16.114;2022-11-14T03:30:58;101193.00;;;4.79;100.00
48624;BME280;34422;45.802;16.114;2022-11-14T03:33:25;101198.78;;;4.84;100.00
48624;BME280;34422;45.802;16.114;2022-11-14T03:35:52;101193.41;;;4.84;100.00
48624;BME280;34422;45.802;16.114;2022-11-14T03:38:19;101198.16;;;4.90;100.00
48624;BME280;34422;45.802;16.114;2022-11-14T03:40:49;101207.97;;;4.99;100.00
48624;BME280;34422;45.802;16.114;2022-11-14T03:43:17;101215.31;;;4.97;100.00
48624;BME280;34422;45.802;16.114;2022-11-14T03:45:44;101222.78;;;5.03;100.00
48624;BME280;34422;45.802;16.114;2022-11-14T03:48:12;101221.84;;;5.12;100.00
48624;BME280;34422;45.802;16.114;2022-11-14T03:50:40;101219.53;;;5.17;100.00
48624;BME280;34422;45.802;16.114;2022-11-14T03:53:07;101211.56;;;5.08;100.00
48624;BME280;34422;45.802;16.114;2022-11-14T03:55:34;101219.53;;;5.17;100.00
48624;BME280;34422;45.802;16.114;2022-11-14T03:58:01;101215.88;;;5.18;100.00
48624;BME280;34422;45.802;16.114;2022-11-14T04:00:28;101210.25;;;5.29;100.00
48624;BME280;34422;45.802;16.114;2022-11-14T04:02:56;101203.88;;;5.30;100.00
48624;BME280;34422;45.802;16.114;2022-11-14T04:05:23;101204.72;;;5.31;100.00
48624;BME280;34422;45.802;16.114;2022-11-14T04:07:50;101205.78;;;5.38;100.00
48624;BME280;34422;45.802;16.114;2022-11-14T04:10:17;101212.03;;;5.47;100.00
48624;BME280;34422;45.802;16.114;2022-11-14T04:12:48;101211.13;;;5.56;100.00
48624;BME280;34422;45.802;16.114;2022-11-14T04:15:16;101213.84;;;5.64;100.00
48624;BME280;34422;45.802;16.114;2022-11-14T04:17:43;101215.91;;;5.70;100.00
48624;BME280;34422;45.802;16.114;2022-11-14T04:20:11;101213.59;;;5.75;100.00
48624;BME280;34422;45.802;16.114;2022-11-14T04:22:39;101212.59;;;5.76;100.00
48624;BME280;34422;45.802;16.114;2022-11-14T04:25:07;101211.66;;;5.85;100.00
48624;BME280;34422;45.802;16.114;2022-11-14T04:27:35;101204.13;;;5.89;100.00
48624;BME280;34422;45.802;16.114;2022-11-14T04:30:03;101209.72;;;5.95;100.00
48624;BME280;34422;45.802;16.114;2022-11-14T04:32:30;101198.31;;;6.01;100.00
48624;BME280;34422;45.802;16.114;2022-11-14T04:34:57;101196.31;;;6.03;100.00
48624;BME280;34422;45.802;16.114;2022-11-14T04:37:24;101197.69;;;6.07;100.00
48624;BME280;34422;45.802;16.114;2022-11-14T04:39:50;101204.44;;;6.12;100.00
48624;BME280;34422;45.802;16.114;2022-11-14T04:42:17;101195.38;;;6.13;100.00
48624;BME280;34422;45.802;16.114;2022-11-14T04:44:44;101189.00;;;6.14;100.00
48624;BME280;34422;45.802;16.114;2022-11-14T04:47:11;101186.31;;;6.14;100.00
48624;BME280;34422;45.802;16.114;2022-11-14T04:49:38;101188.34;;;6.20;100.00
48624;BME280;34422;45.802;16.114;2022-11-14T04:52:05;101192.41;;;6.24;100.00
48624;BME280;34422;45.802;16.114;2022-11-14T04:54:31;101193.91;;;6.26;100.00
48624;BME280;34422;45.802;16.114;2022-11-14T04:56:58;101195.09;;;6.32;100.00
48624;BME280;34422;45.802;16.114;2022-11-14T04:59:25;101186.03;;;6.33;100.00
48624;BME280;34422;45.802;16.114;2022-11-14T05:01:52;101183.50;;;6.31;100.00
48624;BME280;34422;45.802;16.114;2022-11-14T05:04:19;101188.03;;;6.31;100.00
48624;BME280;34422;45.802;16.114;2022-11-14T05:06:45;101184.00;;;6.27;100.00
48624;BME280;34422;45.802;16.114;2022-11-14T05:09:12;101183.66;;;6.30;100.00
48624;BME280;34422;45.802;16.114;2022-11-14T05:11:39;101180.97;;;6.30;100.00
48624;BME280;34422;45.802;16.114;2022-11-14T05:14:06;101175.44;;;6.31;100.00
48624;BME280;34422;45.802;16.114;2022-11-14T05:16:33;101175.28;;;6.33;100.00
48624;BME280;34422;45.802;16.114;2022-11-14T05:19:00;101179.81;;;6.32;100.00
48624;BME280;34422;45.802;16.114;2022-11-14T05:21:27;101184.03;;;6.35;100.00
48624;BME280;34422;45.802;16.114;2022-11-14T05:23:54;101191.09;;;6.36;100.00
48624;BME280;34422;45.802;16.114;2022-11-14T05:26:20;101190.78;;;6.39;100.00
48624;BME280;34422;45.802;16.114;2022-11-14T05:28:47;101191.25;;;6.42;100.00
48624;BME280;34422;45.802;16.114;2022-11-14T05:31:14;101189.59;;;6.41;100.00
48624;BME280;34422;45.802;16.114;2022-11-14T05:33:44;101193.47;;;6.39;100.00
48624;BME280;34422;45.802;16.114;2022-11-14T05:36:13;101194.16;;;6.41;100.00
48624;BME280;34422;45.802;16.114;2022-11-14T05:38:41;101192.78;;;6.45;100.00
48624;BME280;34422;45.802;16.114;2022-11-14T05:41:16;101184.03;;;6.43;100.00
48624;BME280;34422;45.802;16.114;2022-11-14T05:43:43;101193.09;;;6.34;100.00
48624;BME280;34422;45.802;16.114;2022-11-14T05:46:12;101194.47;;;6.38;100.00
48624;BME280;34422;45.802;16.114;2022-11-14T05:48:40;101202.53;;;6.38;100.00
48624;BME280;34422;45.802;16.114;2022-11-14T05:51:10;101203.22;;;6.40;100.00
48624;BME280;34422;45.802;16.114;2022-11-14T05:53:38;101205.91;;;6.40;100.00
48624;BME280;34422;45.802;16.114;2022-11-14T05:56:08;101215.13;;;6.37;100.00
48624;BME280;34422;45.802;16.114;2022-11-14T05:58:36;101209.75;;;6.37;100.00
48624;BME280;34422;45.802;16.114;2022-11-14T06:03:38;101203.53;;;6.37;100.00
48624;BME280;34422;45.802;16.114;2022-11-14T06:06:07;101207.06;;;6.37;100.00
48624;BME280;34422;45.802;16.114;2022-11-14T06:08:35;101199.31;;;6.34;100.00
48624;BME280;34422;45.802;16.114;2022-11-14T06:11:07;101186.56;;;6.36;100.00
48624;BME280;34422;45.802;16.114;2022-11-14T06:13:35;101181.72;;;6.40;100.00
48624;BME280;34422;45.802;16.114;2022-11-14T06:16:05;101187.91;;;6.40;100.00
48624;BME280;34422;45.802;16.114;2022-11-14T06:18:33;101187.75;;;6.42;100.00
48624;BME280;34422;45.802;16.114;2022-11-14T06:21:04;101194.16;;;6.49;100.00
48624;BME280;34422;45.802;16.114;2022-11-14T06:23:31;101192.31;;;6.50;100.00
48624;BME280;34422;45.802;16.114;2022-11-14T06:26:03;101188.78;;;6.49;100.00
48624;BME280;34422;45.802;16.114;2022-11-14T06:28:30;101179.88;;;6.49;100.00
48624;BME280;34422;45.802;16.114;2022-11-14T06:31:02;101184.94;;;6.52;100.00
48624;BME280;34422;45.802;16.114;2022-11-14T06:33:33;101183.25;;;6.51;100.00
48624;BME280;34422;45.802;16.114;2022-11-14T06:36:02;101184.75;;;6.53;100.00
48624;BME280;34422;45.802;16.114;2022-11-14T06:38:32;101183.88;;;6.45;100.00
48624;BME280;34422;45.802;16.114;2022-11-14T06:41:09;101194.69;;;6.53;100.00
48624;BME280;34422;45.802;16.114;2022-11-14T06:43:39;101198.22;;;6.53;100.00
48624;BME280;34422;45.802;16.114;2022-11-14T06:46:08;101191.00;;;6.54;100.00
48624;BME280;34422;45.802;16.114;2022-11-14T06:48:36;101196.19;;;6.55;100.00
48624;BME280;34422;45.802;16.114;2022-11-14T06:51:04;101202.22;;;6.57;100.00
48624;BME280;34422;45.802;16.114;2022-11-14T06:53:35;101195.38;;;6.55;100.00
48624;BME280;34422;45.802;16.114;2022-11-14T06:56:12;101201.22;;;6.58;100.00
48624;BME280;34422;45.802;16.114;2022-11-14T06:58:41;101210.81;;;6.61;100.00
48624;BME280;34422;45.802;16.114;2022-11-14T07:01:12;101221.94;;;6.66;100.00
48624;BME280;34422;45.802;16.114;2022-11-14T07:03:40;101217.56;;;6.65;100.00
48624;BME280;34422;45.802;16.114;2022-11-14T07:06:11;101213.03;;;6.65;100.00
48624;BME280;34422;45.802;16.114;2022-11-14T07:08:39;101212.34;;;6.71;100.00
48624;BME280;34422;45.802;16.114;2022-11-14T07:11:10;101208.16;;;6.69;100.00
48624;BME280;34422;45.802;16.114;2022-11-14T07:13:38;101229.84;;;6.75;100.00
48624;BME280;34422;45.802;16.114;2022-11-14T07:16:06;101229.84;;;6.75;100.00
48624;BME280;34422;45.802;16.114;2022-11-14T07:18:33;101226.16;;;6.76;100.00
48624;BME280;34422;45.802;16.114;2022-11-14T07:21:04;101236.94;;;6.76;100.00
48624;BME280;34422;45.802;16.114;2022-11-14T07:23:34;101237.59;;;6.78;100.00
48624;BME280;34422;45.802;16.114;2022-11-14T07:26:03;101252.38;;;6.74;100.00
48624;BME280;34422;45.802;16.114;2022-11-14T07:28:35;101240.25;;;6.70;100.00
48624;BME280;34422;45.802;16.114;2022-11-14T07:31:04;101236.88;;;6.60;100.00
48624;BME280;34422;45.802;16.114;2022-11-14T07:33:33;101240.78;;;6.66;100.00
48624;BME280;34422;45.802;16.114;2022-11-14T07:36:01;101242.28;;;6.68;100.00
48624;BME280;34422;45.802;16.114;2022-11-14T07:38:32;101242.94;;;6.70;100.00
48624;BME280;34422;45.802;16.114;2022-11-14T07:41:20;101230.19;;;6.72;100.00
48624;BME280;34422;45.802;16.114;2022-11-14T07:43:48;101222.78;;;6.66;100.00
48624;BME280;34422;45.802;16.114;2022-11-14T07:46:17;101224.75;;;6.56;100.00
48624;BME280;34422;45.802;16.114;2022-11-14T07:48:45;101227.09;;;6.51;100.00
48624;BME280;34422;45.802;16.114;2022-11-14T07:51:17;101220.03;;;6.50;100.00
48624;BME280;34422;45.802;16.114;2022-11-14T07:53:45;101219.03;;;6.51;100.00
48624;BME280;34422;45.802;16.114;2022-11-14T07:56:14;101225.44;;;6.58;100.00
48624;BME280;34422;45.802;16.114;2022-11-14T07:58:43;101232.19;;;6.62;100.00
48624;BME280;34422;45.802;16.114;2022-11-14T08:01:11;101224.09;;;6.62;100.00
48624;BME280;34422;45.802;16.114;2022-11-14T08:03:40;101222.06;;;6.56;100.00
48624;BME280;34422;45.802;16.114;2022-11-14T08:06:10;101220.09;;;6.66;100.00
48624;BME280;34422;45.802;16.114;2022-11-14T08:08:38;101207.34;;;6.68;100.00
48624;BME280;34422;45.802;16.114;2022-11-14T08:11:06;101221.25;;;6.64;100.00
48624;BME280;34422;45.802;16.114;2022-11-14T08:13:34;101221.44;;;6.70;100.00
48624;BME280;34422;45.802;16.114;2022-11-14T08:16:07;101217.91;;;6.70;100.00
48624;BME280;34422;45.802;16.114;2022-11-14T08:18:36;101209.81;;;6.70;100.00
48624;BME280;34422;45.802;16.114;2022-11-14T08:21:04;101204.31;;;6.80;100.00
48624;BME280;34422;45.802;16.114;2022-11-14T08:23:33;101204.00;;;6.83;100.00
48624;BME280;34422;45.802;16.114;2022-11-14T08:26:00;101196.94;;;6.82;100.00
48624;BME280;34422;45.802;16.114;2022-11-14T08:28:29;101194.09;;;6.91;100.00
48624;BME280;34422;45.802;16.114;2022-11-14T08:31:00;101177.44;;;7.44;100.00
48624;BME280;34422;45.802;16.114;2022-11-14T08:33:29;101181.81;;;7.05;100.00
48624;BME280;34422;45.802;16.114;2022-11-14T08:36:01;101189.03;;;7.12;100.00
48624;BME280;34422;45.802;16.114;2022-11-14T08:38:30;101178.13;;;7.06;100.00
48624;BME280;34422;45.802;16.114;2022-11-14T08:41:02;101178.09;;;6.90;100.00
48624;BME280;34422;45.802;16.114;2022-11-14T08:43:30;101168.66;;;6.86;100.00
48624;BME280;34422;45.802;16.114;2022-11-14T08:45:59;101157.75;;;6.87;100.00
48624;BME280;34422;45.802;16.114;2022-11-14T08:48:29;101156.94;;;6.95;100.00
48624;BME280;34422;45.802;16.114;2022-11-14T08:51:05;101175.44;;;7.06;100.00
48624;BME280;34422;45.802;16.114;2022-11-14T08:53:33;101164.34;;;7.09;100.00
48624;BME280;34422;45.802;16.114;2022-11-14T08:56:01;101159.28;;;7.22;100.00
48624;BME280;34422;45.802;16.114;2022-11-14T08:58:30;101163.34;;;7.10;100.00
48624;BME280;34422;45.802;16.114;2022-11-14T09:01:00;101158.25;;;7.15;100.00
48624;BME280;34422;45.802;16.114;2022-11-14T09:03:27;101155.91;;;7.20;100.00
48624;BME280;34422;45.802;16.114;2022-11-14T09:05:55;101161.59;;;7.41;100.00
48624;BME280;34422;45.802;16.114;2022-11-14T09:08:23;101171.38;;;7.51;100.00
48624;BME280;34422;45.802;16.114;2022-11-14T09:10:52;101166.97;;;7.58;100.00
48624;BME280;34422;45.802;16.114;2022-11-14T09:13:23;101155.16;;;7.67;100.00
48624;BME280;34422;45.802;16.114;2022-11-14T09:15:54;101151.78;;;7.73;100.00
48624;BME280;34422;45.802;16.114;2022-11-14T09:18:21;101154.44;;;7.89;100.00
48624;BME280;34422;45.802;16.114;2022-11-14T09:20:49;101152.22;;;7.93;100.00
48624;BME280;34422;45.802;16.114;2022-11-14T09:23:17;101155.13;;;7.83;100.00
48624;BME280;34422;45.802;16.114;2022-11-14T09:25:45;101164.59;;;7.79;100.00
48624;BME280;34422;45.802;16.114;2022-11-14T09:28:13;101151.75;;;7.81;100.00
48624;BME280;34422;45.802;16.114;2022-11-14T09:30:43;101161.22;;;7.77;100.00
48624;BME280;34422;45.802;16.114;2022-11-14T09:33:15;101151.59;;;7.82;100.00
48624;BME280;34422;45.802;16.114;2022-11-14T09:35:44;101146.06;;;7.76;100.00
48624;BME280;34422;45.802;16.114;2022-11-14T09:38:12;101148.47;;;7.46;100.00
48624;BME280;34422;45.802;16.114;2022-11-14T09:40:47;101139.53;;;7.54;100.00
48624;BME280;34422;45.802;16.114;2022-11-14T09:43:25;101134.00;;;7.47;100.00
48624;BME280;34422;45.802;16.114;2022-11-14T09:45:55;101126.91;;;7.63;100.00
48624;BME280;34422;45.802;16.114;2022-11-14T09:48:26;101123.50;;;7.69;100.00
48624;BME280;34422;45.802;16.114;2022-11-14T09:51:08;101118.28;;;7.67;100.00
48624;BME280;34422;45.802;16.114;2022-11-14T09:53:44;101114.13;;;7.65;100.00
48624;BME280;34422;45.802;16.114;2022-11-14T09:56:23;101113.41;;;7.71;100.00
48624;BME280;34422;45.802;16.114;2022-11-14T09:58:52;101126.88;;;7.79;100.00
48624;BME280;34422;45.802;16.114;2022-11-14T10:15:57;101145.22;;;7.67;100.00
48624;BME280;34422;45.802;16.114;2022-11-14T10:26:51;101123.03;;;7.65;100.00
48624;BME280;34422;45.802;16.114;2022-11-14T10:40:38;101099.59;;;7.66;100.00
48624;BME280;34422;45.802;16.114;2022-11-14T10:43:45;101103.81;;;7.68;100.00
48624;BME280;34422;45.802;16.114;2022-11-14T10:46:15;101103.63;;;7.78;100.00
48624;BME280;34422;45.802;16.114;2022-11-14T10:48:45;101086.91;;;7.82;100.00
48624;BME280;34422;45.802;16.114;2022-11-14T10:51:25;101082.53;;;7.81;100.00
48624;BME280;34422;45.802;16.114;2022-11-14T10:54:18;101074.91;;;7.93;100.00
48624;BME280;34422;45.802;16.114;2022-11-14T10:56:51;101077.94;;;7.98;100.00
48624;BME280;34422;45.802;16.114;2022-11-14T10:59:20;101071.31;;;7.78;100.00
48624;BME280;34422;45.802;16.114;2022-11-14T11:04:23;101056.25;;;7.92;100.00
48624;BME280;34422;45.802;16.114;2022-11-14T11:07:17;101064.78;;;8.03;100.00
48624;BME280;34422;45.802;16.114;2022-11-14T11:10:02;101058.53;;;8.03;100.00
48624;BME280;34422;45.802;16.114;2022-11-14T11:12:51;101061.41;;;8.01;100.00
48624;BME280;34422;45.802;16.114;2022-11-14T11:15:27;101070.63;;;8.07;100.00
48624;BME280;34422;45.802;16.114;2022-11-14T11:18:21;101063.44;;;7.99;100.00
48624;BME280;34422;45.802;16.114;2022-11-14T11:21:07;101062.03;;;8.11;100.00
48624;BME280;34422;45.802;16.114;2022-11-14T11:23:49;101051.97;;;8.05;100.00
48624;BME280;34422;45.802;16.114;2022-11-14T11:34:22;101033.28;;;7.96;100.00
48624;BME280;34422;45.802;16.114;2022-11-14T11:36:57;101031.53;;;7.80;100.00
48624;BME280;34422;45.802;16.114;2022-11-14T11:39:32;101023.53;;;7.95;100.00
48624;BME280;34422;45.802;16.114;2022-11-14T11:42:07;101029.56;;;8.05;100.00
48624;BME280;34422;45.802;16.114;2022-11-14T11:44:45;101018.16;;;7.95;100.00
48624;BME280;34422;45.802;16.114;2022-11-14T11:47:16;101018.88;;;7.89;100.00
48624;BME280;34422;45.802;16.114;2022-11-14T11:49:49;101003.53;;;7.89;100.00
48624;BME280;34422;45.802;16.114;2022-11-14T11:52:36;101006.75;;;7.84;100.00
48624;BME280;34422;45.802;16.114;2022-11-14T11:57:46;101006.19;;;7.97;100.00
48624;BME280;34422;45.802;16.114;2022-11-14T12:00:17;101014.94;;;7.99;100.00
48624;BME280;34422;45.802;16.114;2022-11-14T12:02:49;101004.50;;;7.96;100.00
48624;BME280;34422;45.802;16.114;2022-11-14T12:05:45;100995.03;;;8.00;100.00
48624;BME280;34422;45.802;16.114;2022-11-14T12:08:30;100995.88;;;8.01;100.00
48624;BME280;34422;45.802;16.114;2022-11-14T12:11:01;101003.44;;;8.05;100.00
48624;BME280;34422;45.802;16.114;2022-11-14T12:30:57;100996.38;;;8.04;100.00
48624;BME280;34422;45.802;16.114;2022-11-14T12:33:29;100998.69;;;8.07;100.00
48624;BME280;34422;45.802;16.114;2022-11-14T12:36:02;100986.13;;;8.00;100.00
48624;BME280;34422;45.802;16.114;2022-11-14T12:38:41;100996.97;;;7.92;100.00
48624;BME280;34422;45.802;16.114;2022-11-14T12:41:10;100996.81;;;7.85;100.00
48624;BME280;34422;45.802;16.114;2022-11-14T12:43:40;100989.47;;;7.79;100.00
48624;BME280;34422;45.802;16.114;2022-11-14T12:46:14;100999.56;;;7.77;100.00
48624;BME280;34422;45.802;16.114;2022-11-14T12:48:45;101004.41;;;7.81;100.00
48624;BME280;34422;45.802;16.114;2022-11-14T12:53:54;100999.84;;;7.82;100.00
48624;BME280;34422;45.802;16.114;2022-11-14T13:07:30;100991.50;;;7.77;100.00
48624;BME280;34422;45.802;16.114;2022-11-14T13:10:34;100980.72;;;7.69;100.00
48624;BME280;34422;45.802;16.114;2022-11-14T13:13:06;100975.34;;;7.69;100.00
48624;BME280;34422;45.802;16.114;2022-11-14T13:15:58;100963.63;;;7.62;100.00
48624;BME280;34422;45.802;16.114;2022-11-14T13:27:29;100963.63;;;7.62;100.00
48624;BME280;34422;45.802;16.114;2022-11-14T13:29:58;100957.63;;;7.52;100.00
48624;BME280;34422;45.802;16.114;2022-11-14T13:35:57;100956.97;;;7.41;100.00
48624;BME280;34422;45.802;16.114;2022-11-14T13:38:21;100951.59;;;7.41;100.00
48624;BME280;34422;45.802;16.114;2022-11-14T13:49:55;100939.50;;;7.37;100.00
48624;BME280;34422;45.802;16.114;2022-11-14T13:52:29;100946.88;;;7.43;100.00
48624;BME280;34422;45.802;16.114;2022-11-14T13:54:58;100947.19;;;7.48;100.00
48624;BME280;34422;45.802;16.114;2022-11-14T14:00:16;100941.63;;;7.50;100.00
48624;BME280;34422;45.802;16.114;2022-11-14T14:05:47;100940.91;;;7.56;100.00
48624;BME280;34422;45.802;16.114;2022-11-14T14:16:54;100926.25;;;7.59;100.00
48624;BME280;34422;45.802;16.114;2022-11-14T14:19:45;100921.03;;;7.57;100.00
48624;BME280;34422;45.802;16.114;2022-11-14T14:22:34;100922.91;;;7.57;100.00
48624;BME280;34422;45.802;16.114;2022-11-14T14:25:42;100921.22;;;7.56;100.00
48624;BME280;34422;45.802;16.114;2022-11-14T14:31:11;100932.16;;;7.54;100.00
48624;BME280;34422;45.802;16.114;2022-11-14T14:33:44;100928.28;;;7.57;100.00
48624;BME280;34422;45.802;16.114;2022-11-14T14:39:05;100924.94;;;7.55;100.00
48624;BME280;34422;45.802;16.114;2022-11-14T14:41:38;100925.59;;;7.57;100.00
48624;BME280;34422;45.802;16.114;2022-11-14T14:44:18;100916.50;;;7.58;100.00
48624;BME280;34422;45.802;16.114;2022-11-14T14:46:48;100900.16;;;7.59;100.00
48624;BME280;34422;45.802;16.114;2022-11-14T14:49:24;100903.22;;;7.56;100.00
48624;BME280;34422;45.802;16.114;2022-11-14T14:51:55;100903.75;;;7.52;100.00
48624;BME280;34422;45.802;16.114;2022-11-14T14:54:26;100902.38;;;7.56;100.00
48624;BME280;34422;45.802;16.114;2022-11-14T14:56:58;100900.03;;;7.53;100.00
48624;BME280;34422;45.802;16.114;2022-11-14T14:59:30;100902.38;;;7.56;100.00
48624;BME280;34422;45.802;16.114;2022-11-14T15:02:01;100900.16;;;7.59;100.00